Time;durP1;ratioP1;P1;durP2;ratioP2;P2;SDS_P1;SDS_P2;PMS_P1;PMS_P2;Temp;Humidity;BMP_temperature;BMP_pressure;BME280_temperature;BME280_humidity;BME280_pressure;Samples;Min_cycle;Max_cycle;Signal;HPM_P1;HPM_P2
2023/05/18 00:02:06;;;;;;;;;;;9.40;99.90;;;;;;5026695;28;20582;-76
2023/05/18 00:04:36;;;;;;;;;;;9.30;99.90;;;;;;5002540;28;19920;-76
2023/05/18 00:07:03;;;;;;;;;;;9.40;99.90;;;;;;5024090;28;20336;-76
2023/05/18 00:09:33;;;;;;;;;;;9.40;99.90;;;;;;5022759;28;20007;-75
2023/05/18 00:12:00;;;;;;;;;;;9.50;99.90;;;;;;5025787;28;19917;-75
2023/05/18 00:14:26;;;;;;;;;;;9.50;99.90;;;;;;5020408;28;20366;-75
2023/05/18 00:16:53;;;;;;;;;;;9.40;99.90;;;;;;5027446;28;19987;-75
2023/05/18 00:19:21;;;;;;;;;;;9.40;99.90;;;;;;5008052;28;19905;-76
2023/05/18 00:21:49;;;;;;;;;;;9.30;99.90;;;;;;5003132;28;19995;-76
2023/05/18 00:24:15;;;;;;;;;;;9.40;99.90;;;;;;5009499;28;19913;-76
2023/05/18 00:26:49;;;;;;;;;;;9.30;99.90;;;;;;5025704;28;19955;-75
2023/05/18 00:29:14;;;;;;;;;;;9.40;99.90;;;;;;5021723;28;20406;-75
2023/05/18 00:31:44;;;;;;;;;;;9.40;99.90;;;;;;5029229;28;20009;-76
2023/05/18 00:34:10;;;;;;;;;;;9.40;99.90;;;;;;5023404;28;19908;-76
2023/05/18 00:36:36;;;;;;;;;;;9.40;99.90;;;;;;5024561;28;20354;-76
2023/05/18 00:39:03;;;;;;;;;;;9.40;99.90;;;;;;5000939;28;19935;-76
2023/05/18 00:41:53;;;;;;;;;;;9.40;99.90;;;;;;5022205;28;19913;-76
2023/05/18 00:44:32;;;;;;;;;;;9.40;99.90;;;;;;5022145;28;19917;-75
2023/05/18 00:47:00;;;;;;;;;;;9.30;99.90;;;;;;5001195;28;20494;-76
2023/05/18 00:49:26;;;;;;;;;;;9.40;99.90;;;;;;5029433;28;19962;-76
2023/05/18 00:51:52;;;;;;;;;;;9.40;99.90;;;;;;5025210;28;19912;-76
2023/05/18 00:54:18;;;;;;;;;;;9.40;99.90;;;;;;5023103;28;19916;-76
2023/05/18 00:57:00;;;;;;;;;;;9.40;99.90;;;;;;5027589;28;20884;-76
2023/05/18 00:59:29;;;;;;;;;;;9.40;99.90;;;;;;5026259;28;19912;-76
2023/05/18 01:01:55;;;;;;;;;;;9.40;99.90;;;;;;4999728;28;19905;-76
2023/05/18 01:04:27;;;;;;;;;;;9.40;99.90;;;;;;5003574;28;19912;-75
2023/05/18 01:06:55;;;;;;;;;;;9.40;99.90;;;;;;5026267;28;20430;-76
2023/05/18 01:09:24;;;;;;;;;;;9.40;99.90;;;;;;5029363;28;19905;-75
2023/05/18 01:12:10;;;;;;;;;;;9.40;99.90;;;;;;5023960;28;19975;-76
2023/05/18 01:14:55;;;;;;;;;;;9.40;99.90;;;;;;5021370;28;19909;-75
2023/05/18 01:17:42;;;;;;;;;;;9.40;99.90;;;;;;5022156;28;19948;-76
2023/05/18 01:20:18;;;;;;;;;;;9.40;99.90;;;;;;5023696;28;19919;-75
2023/05/18 01:22:49;;;;;;;;;;;9.40;99.90;;;;;;5024184;28;19906;-75
2023/05/18 01:25:22;;;;;;;;;;;9.40;99.90;;;;;;5006127;28;20932;-76
2023/05/18 01:27:49;;;;;;;;;;;9.40;99.90;;;;;;5022593;28;19988;-76
2023/05/18 01:30:17;;;;;;;;;;;9.40;99.90;;;;;;4997897;28;21527;-76
2023/05/18 01:32:45;;;;;;;;;;;9.40;99.90;;;;;;5004628;28;19959;-76
2023/05/18 01:35:10;;;;;;;;;;;9.40;99.90;;;;;;5014686;28;19908;-75
2023/05/18 01:37:38;;;;;;;;;;;9.40;99.90;;;;;;5026821;28;19909;-76
2023/05/18 01:40:04;;;;;;;;;;;9.30;99.90;;;;;;5023915;28;19905;-76
2023/05/18 01:42:33;;;;;;;;;;;9.30;99.90;;;;;;5021850;28;19912;-75
2023/05/18 01:45:06;;;;;;;;;;;9.30;99.90;;;;;;5022517;28;20247;-76
2023/05/18 01:47:36;;;;;;;;;;;9.30;99.90;;;;;;5026706;28;19952;-76
2023/05/18 01:50:04;;;;;;;;;;;9.30;99.90;;;;;;5028365;28;19956;-76
2023/05/18 01:52:46;;;;;;;;;;;9.20;99.90;;;;;;5029206;28;19908;-76
2023/05/18 01:55:13;;;;;;;;;;;9.30;99.90;;;;;;5004956;28;20407;-76
2023/05/18 01:57:41;;;;;;;;;;;9.30;99.90;;;;;;5024397;28;20042;-76
2023/05/18 02:00:09;;;;;;;;;;;9.20;99.90;;;;;;5010395;28;19909;-76
2023/05/18 02:02:35;;;;;;;;;;;9.20;99.90;;;;;;5005348;28;20335;-76
2023/05/18 02:05:04;;;;;;;;;;;9.20;99.90;;;;;;5025071;28;19978;-76
2023/05/18 02:07:32;;;;;;;;;;;9.30;99.90;;;;;;5031228;28;19912;-75
2023/05/18 02:10:02;;;;;;;;;;;9.30;99.90;;;;;;5013607;28;19936;-76
2023/05/18 02:12:28;;;;;;;;;;;9.30;99.90;;;;;;5024010;28;20351;-76
2023/05/18 02:14:57;;;;;;;;;;;9.30;99.90;;;;;;5007132;28;19964;-76
2023/05/18 02:17:25;;;;;;;;;;;9.40;99.90;;;;;;5007148;28;20256;-76
2023/05/18 02:19:52;;;;;;;;;;;9.40;99.90;;;;;;5025650;28;19908;-76
2023/05/18 02:22:22;;;;;;;;;;;9.40;99.90;;;;;;5003629;28;20363;-76
2023/05/18 02:24:47;;;;;;;;;;;9.30;99.90;;;;;;5005962;28;19913;-75
2023/05/18 02:27:20;;;;;;;;;;;9.40;99.90;;;;;;5003580;28;20761;-76
2023/05/18 02:29:46;;;;;;;;;;;9.30;99.90;;;;;;5006234;28;20359;-76
2023/05/18 02:32:13;;;;;;;;;;;9.30;99.90;;;;;;5022313;28;19919;-76
2023/05/18 02:34:41;;;;;;;;;;;9.40;99.90;;;;;;5028725;28;20002;-76
2023/05/18 02:37:07;;;;;;;;;;;9.40;99.90;;;;;;5006709;28;19905;-76
2023/05/18 02:39:37;;;;;;;;;;;9.30;99.90;;;;;;5026143;28;19911;-76
2023/05/18 02:42:02;;;;;;;;;;;9.40;99.90;;;;;;5024048;28;20365;-76
2023/05/18 02:44:33;;;;;;;;;;;9.40;99.90;;;;;;5026374;28;19905;-76
2023/05/18 02:47:00;;;;;;;;;;;9.40;99.90;;;;;;5027929;28;20082;-76
2023/05/18 02:49:26;;;;;;;;;;;9.40;99.90;;;;;;5002416;28;19911;-76
2023/05/18 02:51:51;;;;;;;;;;;9.40;99.90;;;;;;5026681;28;20286;-76
2023/05/18 02:54:18;;;;;;;;;;;9.40;99.90;;;;;;5025780;28;20015;-76
2023/05/18 02:56:50;;;;;;;;;;;9.40;99.90;;;;;;5027668;28;20365;-76
2023/05/18 02:59:17;;;;;;;;;;;9.40;99.90;;;;;;5025122;28;20483;-76
2023/05/18 03:01:45;;;;;;;;;;;9.40;99.90;;;;;;5028368;28;19905;-76
2023/05/18 03:04:12;;;;;;;;;;;9.40;99.90;;;;;;5025515;28;19905;-76
2023/05/18 03:06:52;;;;;;;;;;;9.50;99.90;;;;;;5027184;28;19905;-76
2023/05/18 03:09:18;;;;;;;;;;;9.40;99.90;;;;;;5026170;28;20370;-76
2023/05/18 03:11:46;;;;;;;;;;;9.40;99.90;;;;;;5026888;28;19916;-76
2023/05/18 03:14:11;;;;;;;;;;;9.50;99.90;;;;;;5022810;28;19936;-75
2023/05/18 03:16:44;;;;;;;;;;;9.40;99.90;;;;;;5025643;28;20374;-76
2023/05/18 03:19:12;;;;;;;;;;;9.40;99.90;;;;;;5025440;28;20143;-76
2023/05/18 03:21:40;;;;;;;;;;;9.40;99.90;;;;;;5030144;28;19912;-76
2023/05/18 03:24:14;;;;;;;;;;;9.50;99.90;;;;;;5005787;28;19913;-76
2023/05/18 03:26:45;;;;;;;;;;;9.50;99.90;;;;;;5025528;28;19909;-76
2023/05/18 03:29:18;;;;;;;;;;;9.40;99.90;;;;;;5024155;28;19905;-76
2023/05/18 03:31:50;;;;;;;;;;;9.50;99.90;;;;;;5024307;28;19909;-76
2023/05/18 03:34:17;;;;;;;;;;;9.50;99.90;;;;;;5002638;28;19909;-76
2023/05/18 03:36:46;;;;;;;;;;;9.50;99.90;;;;;;5024784;28;19913;-76
2023/05/18 03:39:11;;;;;;;;;;;9.50;99.90;;;;;;5002427;28;19909;-76
2023/05/18 03:41:38;;;;;;;;;;;9.50;99.90;;;;;;5004550;28;19916;-76
2023/05/18 03:44:15;;;;;;;;;;;9.50;99.90;;;;;;5019863;28;19909;-75
2023/05/18 03:46:42;;;;;;;;;;;9.50;99.90;;;;;;5002896;28;19912;-76
2023/05/18 03:49:10;;;;;;;;;;;9.60;99.90;;;;;;5030197;28;19908;-76
2023/05/18 03:51:44;;;;;;;;;;;9.50;99.90;;;;;;5009542;28;20648;-76
2023/05/18 03:54:10;;;;;;;;;;;9.50;99.90;;;;;;5024218;28;19909;-76
2023/05/18 03:56:38;;;;;;;;;;;9.60;99.90;;;;;;5026228;28;19917;-76
2023/05/18 03:59:05;;;;;;;;;;;9.60;99.90;;;;;;5026039;28;19905;-76
2023/05/18 04:01:43;;;;;;;;;;;9.60;99.90;;;;;;5005877;28;19939;-76
2023/05/18 04:04:08;;;;;;;;;;;9.60;99.90;;;;;;5024662;28;19913;-76
2023/05/18 04:06:41;;;;;;;;;;;9.60;99.90;;;;;;5022428;28;19987;-76
2023/05/18 04:09:16;;;;;;;;;;;9.60;99.90;;;;;;5026046;28;19905;-77
2023/05/18 04:11:48;;;;;;;;;;;9.70;99.90;;;;;;5028535;28;20354;-76
2023/05/18 04:14:15;;;;;;;;;;;9.70;99.90;;;;;;5023587;28;19945;-76
2023/05/18 04:16:45;;;;;;;;;;;9.70;99.90;;;;;;5025549;28;19905;-76
2023/05/18 04:19:20;;;;;;;;;;;9.70;99.90;;;;;;5021840;28;19995;-76
2023/05/18 04:21:50;;;;;;;;;;;9.80;99.90;;;;;;5021571;28;20032;-76
2023/05/18 04:24:25;;;;;;;;;;;9.80;99.90;;;;;;5018824;28;19920;-77
2023/05/18 04:26:51;;;;;;;;;;;9.80;99.90;;;;;;5024518;28;19905;-76
2023/05/18 04:29:18;;;;;;;;;;;9.80;99.90;;;;;;5024043;28;19920;-76
2023/05/18 04:31:46;;;;;;;;;;;9.80;99.90;;;;;;5002450;28;19909;-76
2023/05/18 04:34:12;;;;;;;;;;;9.80;99.90;;;;;;5017899;28;19919;-76
2023/05/18 04:36:41;;;;;;;;;;;9.80;99.90;;;;;;5022734;28;20351;-76
2023/05/18 04:39:17;;;;;;;;;;;9.80;99.90;;;;;;5024002;28;19979;-76
2023/05/18 04:41:44;;;;;;;;;;;9.80;99.90;;;;;;5019307;28;19992;-76
2023/05/18 04:44:12;;;;;;;;;;;9.80;99.90;;;;;;5017840;28;19913;-76
2023/05/18 04:46:41;;;;;;;;;;;9.80;99.90;;;;;;5002708;28;19913;-76
2023/05/18 04:49:10;;;;;;;;;;;9.80;99.90;;;;;;5025909;28;19905;-76
2023/05/18 04:51:36;;;;;;;;;;;9.90;99.90;;;;;;5025239;28;20635;-76
2023/05/18 04:54:11;;;;;;;;;;;9.90;99.90;;;;;;5000607;28;19971;-76
2023/05/18 04:56:38;;;;;;;;;;;9.90;99.90;;;;;;5018255;28;19916;-75
2023/05/18 04:59:04;;;;;;;;;;;9.90;99.90;;;;;;5022309;28;19909;-76
2023/05/18 05:01:30;;;;;;;;;;;9.90;99.90;;;;;;5013786;28;19905;-77
2023/05/18 05:03:57;;;;;;;;;;;9.90;99.90;;;;;;5025245;28;19909;-77
2023/05/18 05:06:24;;;;;;;;;;;10.00;99.90;;;;;;5023121;28;19913;-77
2023/05/18 05:08:50;;;;;;;;;;;10.00;99.90;;;;;;5023591;28;19955;-76
2023/05/18 05:11:16;;;;;;;;;;;10.00;99.90;;;;;;5022500;28;19921;-74
2023/05/18 05:13:43;;;;;;;;;;;10.10;99.90;;;;;;5002022;28;19932;-74
2023/05/18 05:16:09;;;;;;;;;;;10.10;99.90;;;;;;5023446;28;19915;-74
2023/05/18 05:18:35;;;;;;;;;;;10.10;99.90;;;;;;5024315;28;19948;-74
2023/05/18 05:21:02;;;;;;;;;;;10.10;99.90;;;;;;5024688;28;20400;-74
2023/05/18 05:23:28;;;;;;;;;;;10.20;99.90;;;;;;5022239;28;20732;-74
2023/05/18 05:25:54;;;;;;;;;;;10.20;99.90;;;;;;5017656;28;19913;-74
2023/05/18 05:28:19;;;;;;;;;;;10.20;99.90;;;;;;5021101;28;19906;-74
2023/05/18 05:30:47;;;;;;;;;;;10.20;99.90;;;;;;5028608;28;19924;-74
2023/05/18 05:33:13;;;;;;;;;;;10.30;99.90;;;;;;5024461;28;19913;-74
2023/05/18 05:35:39;;;;;;;;;;;10.30;99.90;;;;;;5024522;28;20369;-74
2023/05/18 05:38:05;;;;;;;;;;;10.40;99.90;;;;;;5004299;28;19908;-74
2023/05/18 05:40:33;;;;;;;;;;;10.40;99.90;;;;;;5002272;28;19909;-74
2023/05/18 05:42:59;;;;;;;;;;;10.50;99.90;;;;;;5018879;28;19909;-74
2023/05/18 05:45:27;;;;;;;;;;;10.50;99.90;;;;;;5003650;28;19905;-74
2023/05/18 05:47:54;;;;;;;;;;;10.50;99.90;;;;;;5003865;28;19988;-74
2023/05/18 05:50:23;;;;;;;;;;;10.50;99.90;;;;;;5004661;28;19919;-75
2023/05/18 05:52:52;;;;;;;;;;;10.50;99.90;;;;;;5023776;28;19913;-74
2023/05/18 05:55:17;;;;;;;;;;;10.50;99.90;;;;;;5020696;28;20373;-74
2023/05/18 05:57:45;;;;;;;;;;;10.50;99.90;;;;;;5025825;28;19912;-74
2023/05/18 06:00:11;;;;;;;;;;;10.50;99.90;;;;;;5022743;28;19904;-74
2023/05/18 06:02:37;;;;;;;;;;;10.60;99.90;;;;;;5023131;28;19937;-74
2023/05/18 06:05:03;;;;;;;;;;;10.60;99.90;;;;;;5022018;28;19913;-75
2023/05/18 06:07:29;;;;;;;;;;;10.60;99.90;;;;;;5010400;28;21312;-74
2023/05/18 06:09:56;;;;;;;;;;;10.70;99.90;;;;;;5025024;28;20019;-74
2023/05/18 06:12:30;;;;;;;;;;;10.70;99.90;;;;;;5023519;28;19912;-75
2023/05/18 06:14:56;;;;;;;;;;;10.80;99.90;;;;;;5022245;28;20378;-74
2023/05/18 06:17:24;;;;;;;;;;;10.70;99.90;;;;;;5001459;28;20327;-75
2023/05/18 06:19:53;;;;;;;;;;;10.70;99.90;;;;;;5026000;28;19912;-75
2023/05/18 06:22:18;;;;;;;;;;;10.70;99.90;;;;;;5021259;28;20046;-74
2023/05/18 06:24:44;;;;;;;;;;;10.70;99.90;;;;;;5023945;28;19995;-74
2023/05/18 06:27:10;;;;;;;;;;;10.70;99.90;;;;;;5025745;28;20366;-74
2023/05/18 06:29:36;;;;;;;;;;;10.70;99.90;;;;;;5030326;28;19908;-73
2023/05/18 06:32:01;;;;;;;;;;;10.70;99.90;;;;;;5021830;28;19927;-74
2023/05/18 06:34:27;;;;;;;;;;;10.70;99.90;;;;;;5023252;28;19916;-68
2023/05/18 06:36:54;;;;;;;;;;;10.70;99.90;;;;;;5027059;28;20637;-74
2023/05/18 06:39:22;;;;;;;;;;;10.80;99.90;;;;;;5019658;28;19917;-73
2023/05/18 06:41:50;;;;;;;;;;;10.80;99.90;;;;;;5025997;28;20066;-74
2023/05/18 06:44:16;;;;;;;;;;;10.80;99.90;;;;;;5006655;28;19952;-74
2023/05/18 06:46:45;;;;;;;;;;;10.80;99.90;;;;;;5022081;28;20353;-74
2023/05/18 06:49:14;;;;;;;;;;;10.70;99.90;;;;;;5004014;28;19912;-74
2023/05/18 06:51:42;;;;;;;;;;;10.80;99.90;;;;;;5025441;28;19904;-74
2023/05/18 06:54:08;;;;;;;;;;;10.80;99.90;;;;;;5025202;28;19974;-76
2023/05/18 06:56:34;;;;;;;;;;;10.80;99.90;;;;;;5022546;28;19913;-74
2023/05/18 06:59:01;;;;;;;;;;;10.90;99.90;;;;;;5031196;28;19913;-74
2023/05/18 07:01:26;;;;;;;;;;;10.80;99.90;;;;;;5027198;28;19905;-74
2023/05/18 07:03:53;;;;;;;;;;;10.90;99.90;;;;;;5029468;28;19909;-74
2023/05/18 07:06:19;;;;;;;;;;;10.90;99.90;;;;;;5025841;28;19959;-75
2023/05/18 07:08:46;;;;;;;;;;;10.90;99.90;;;;;;5027499;28;20321;-74
2023/05/18 07:11:12;;;;;;;;;;;10.90;99.90;;;;;;5024067;28;19905;-74
2023/05/18 07:13:39;;;;;;;;;;;10.90;99.90;;;;;;5014751;28;19917;-74
2023/05/18 07:16:05;;;;;;;;;;;10.90;99.90;;;;;;5025482;28;19909;-74
2023/05/18 07:18:31;;;;;;;;;;;10.90;99.90;;;;;;5027979;28;20051;-76
2023/05/18 07:20:56;;;;;;;;;;;11.00;99.90;;;;;;5027563;28;19909;-76
2023/05/18 07:23:26;;;;;;;;;;;11.00;99.90;;;;;;5029143;28;19909;-76
2023/05/18 07:25:51;;;;;;;;;;;11.00;99.90;;;;;;5003356;28;19906;-76
2023/05/18 07:28:24;;;;;;;;;;;10.90;99.90;;;;;;5022638;28;19916;-77
2023/05/18 07:30:50;;;;;;;;;;;10.80;99.90;;;;;;5030209;28;20359;-75
2023/05/18 07:33:18;;;;;;;;;;;10.90;99.90;;;;;;5006462;28;19921;-76
2023/05/18 07:35:47;;;;;;;;;;;10.90;99.90;;;;;;5023610;28;19904;-76
2023/05/18 07:38:13;;;;;;;;;;;10.90;99.90;;;;;;5025235;28;19916;-75
2023/05/18 07:40:39;;;;;;;;;;;10.90;99.90;;;;;;5023067;28;20487;-76
2023/05/18 07:43:06;;;;;;;;;;;10.90;99.90;;;;;;5023477;28;19951;-76
2023/05/18 07:45:34;;;;;;;;;;;10.90;99.90;;;;;;5028292;28;19922;-75
2023/05/18 07:48:01;;;;;;;;;;;10.80;99.90;;;;;;5000100;28;20321;-76
2023/05/18 07:50:29;;;;;;;;;;;10.80;99.90;;;;;;5024349;28;19905;-75
2023/05/18 07:52:55;;;;;;;;;;;10.80;99.90;;;;;;5025695;28;19905;-76
2023/05/18 07:55:23;;;;;;;;;;;10.80;99.90;;;;;;5022054;28;19916;-76
2023/05/18 07:58:04;;;;;;;;;;;10.80;99.90;;;;;;5024834;28;19912;-76
2023/05/18 08:00:32;;;;;;;;;;;10.80;99.90;;;;;;5004822;28;19905;-76
2023/05/18 08:03:08;;;;;;;;;;;10.80;99.90;;;;;;5024173;28;20186;-76
2023/05/18 08:05:34;;;;;;;;;;;10.90;99.90;;;;;;5025346;28;20358;-75
2023/05/18 08:08:01;;;;;;;;;;;10.90;99.90;;;;;;5023730;28;19913;-76
2023/05/18 08:10:27;;;;;;;;;;;10.90;99.90;;;;;;5006159;28;19984;-75
2023/05/18 08:12:53;;;;;;;;;;;11.00;99.90;;;;;;5024896;28;19992;-76
2023/05/18 08:15:19;;;;;;;;;;;11.10;99.90;;;;;;5021275;28;19913;-76
2023/05/18 08:17:51;;;;;;;;;;;11.10;99.90;;;;;;5022907;28;20277;-76
2023/05/18 08:20:17;;;;;;;;;;;11.00;99.90;;;;;;5003018;28;19913;-75
2023/05/18 08:22:43;;;;;;;;;;;11.10;99.90;;;;;;5006974;28;19905;-76
2023/05/18 08:25:15;;;;;;;;;;;11.00;99.90;;;;;;5002152;28;19959;-76
2023/05/18 08:27:42;;;;;;;;;;;11.10;99.90;;;;;;5021845;28;20612;-76
2023/05/18 08:30:20;;;;;;;;;;;11.10;99.90;;;;;;5007215;28;20136;-76
2023/05/18 08:32:47;;;;;;;;;;;11.20;99.90;;;;;;5021742;28;19928;-77
2023/05/18 08:35:21;;;;;;;;;;;11.30;99.90;;;;;;5020301;28;19905;-76
2023/05/18 08:37:46;;;;;;;;;;;11.20;99.90;;;;;;5024940;28;20466;-75
2023/05/18 08:40:12;;;;;;;;;;;11.30;99.90;;;;;;4999909;28;20007;-76
2023/05/18 08:42:37;;;;;;;;;;;11.30;99.90;;;;;;5022086;28;19909;-76
2023/05/18 08:45:22;;;;;;;;;;;11.40;99.90;;;;;;5022377;28;19915;-76
2023/05/18 08:47:54;;;;;;;;;;;11.40;99.90;;;;;;5018034;28;19916;-76
2023/05/18 08:50:21;;;;;;;;;;;11.40;99.90;;;;;;5024011;28;19908;-76
2023/05/18 08:52:47;;;;;;;;;;;11.40;99.90;;;;;;5019497;28;19920;-76
2023/05/18 08:55:16;;;;;;;;;;;11.50;99.90;;;;;;5030853;28;19905;-76
2023/05/18 08:57:45;;;;;;;;;;;11.60;99.90;;;;;;5002153;28;19913;-76
2023/05/18 09:00:13;;;;;;;;;;;11.50;99.90;;;;;;5021247;28;19951;-76
2023/05/18 09:02:39;;;;;;;;;;;11.60;99.90;;;;;;5015720;28;20465;-76
2023/05/18 09:05:06;;;;;;;;;;;11.70;99.90;;;;;;5022506;28;19916;-76
2023/05/18 09:07:33;;;;;;;;;;;11.70;99.90;;;;;;5025635;28;19938;-76
2023/05/18 09:10:02;;;;;;;;;;;11.80;99.90;;;;;;5019246;28;19905;-76
2023/05/18 09:12:36;;;;;;;;;;;11.80;99.90;;;;;;5021582;28;19913;-76
2023/05/18 09:15:02;;;;;;;;;;;11.90;99.90;;;;;;5022824;28;20634;-76
2023/05/18 09:17:28;;;;;;;;;;;11.90;99.90;;;;;;5008720;28;20381;-77
2023/05/18 09:19:55;;;;;;;;;;;11.70;99.90;;;;;;5020045;28;19911;-75
2023/05/18 09:22:25;;;;;;;;;;;11.70;99.90;;;;;;5002404;28;19905;-76
2023/05/18 09:24:54;;;;;;;;;;;11.70;99.90;;;;;;5025688;28;19912;-76
2023/05/18 09:27:22;;;;;;;;;;;11.80;99.90;;;;;;5016947;28;19917;-76
2023/05/18 09:29:52;;;;;;;;;;;11.90;99.90;;;;;;5003977;28;19913;-76
2023/05/18 09:32:20;;;;;;;;;;;11.90;99.90;;;;;;5024366;28;19992;-76
2023/05/18 09:34:54;;;;;;;;;;;11.90;99.90;;;;;;5019736;28;20572;-76
2023/05/18 09:37:20;;;;;;;;;;;11.90;99.90;;;;;;5002914;28;19906;-76
2023/05/18 09:40:04;;;;;;;;;;;12.00;99.90;;;;;;5023551;28;19913;-76
2023/05/18 09:42:36;;;;;;;;;;;11.90;99.90;;;;;;5018671;28;19909;-76
2023/05/18 09:45:06;;;;;;;;;;;11.90;99.90;;;;;;5021795;28;19913;-76
2023/05/18 09:47:36;;;;;;;;;;;11.90;99.90;;;;;;5003692;28;19915;-76
2023/05/18 09:50:01;;;;;;;;;;;11.90;99.90;;;;;;5027146;28;19966;-75
2023/05/18 09:52:30;;;;;;;;;;;11.80;99.90;;;;;;5023127;28;20270;-76
2023/05/18 09:55:03;;;;;;;;;;;11.90;99.90;;;;;;4997487;28;19916;-76
2023/05/18 09:57:30;;;;;;;;;;;11.80;99.90;;;;;;5024004;28;19967;-76
2023/05/18 10:00:09;;;;;;;;;;;11.90;99.90;;;;;;5023741;28;20007;-75
2023/05/18 10:02:40;;;;;;;;;;;11.90;99.90;;;;;;5022881;28;19905;-75
2023/05/18 10:05:26;;;;;;;;;;;12.00;99.90;;;;;;5026976;28;19915;-76
2023/05/18 10:07:56;;;;;;;;;;;12.10;99.90;;;;;;5019288;28;19983;-76
2023/05/18 10:10:25;;;;;;;;;;;12.00;99.90;;;;;;5008281;28;19912;-76
2023/05/18 10:12:51;;;;;;;;;;;12.10;99.90;;;;;;5017207;28;20239;-76
2023/05/18 10:15:19;;;;;;;;;;;12.10;99.90;;;;;;5004335;28;19917;-76
2023/05/18 10:17:49;;;;;;;;;;;12.10;99.90;;;;;;5024416;28;19917;-76
2023/05/18 10:20:20;;;;;;;;;;;12.20;99.90;;;;;;4999943;28;19909;-76
2023/05/18 10:22:46;;;;;;;;;;;12.20;99.90;;;;;;5028141;28;19915;-76
2023/05/18 10:25:15;;;;;;;;;;;12.30;99.90;;;;;;5023390;28;20584;-76
2023/05/18 10:27:42;;;;;;;;;;;12.20;99.90;;;;;;5024044;28;19916;-76
2023/05/18 10:30:09;;;;;;;;;;;12.20;99.90;;;;;;5026383;28;19920;-76
2023/05/18 10:32:41;;;;;;;;;;;12.00;99.90;;;;;;5025962;28;19909;-76
2023/05/18 10:35:07;;;;;;;;;;;12.10;99.90;;;;;;5026688;28;19962;-77
2023/05/18 10:37:38;;;;;;;;;;;12.20;99.90;;;;;;5006054;28;19912;-76
2023/05/18 10:40:06;;;;;;;;;;;12.20;99.90;;;;;;5026805;28;19905;-76
2023/05/18 10:42:33;;;;;;;;;;;12.20;99.90;;;;;;5023904;28;19909;-76
2023/05/18 10:45:01;;;;;;;;;;;12.10;99.90;;;;;;5020890;28;19919;-76
2023/05/18 10:47:28;;;;;;;;;;;12.10;99.90;;;;;;5007046;28;20000;-76
2023/05/18 10:49:54;;;;;;;;;;;12.20;99.90;;;;;;5001032;28;19990;-76
2023/05/18 10:52:22;;;;;;;;;;;12.20;99.90;;;;;;5004429;28;19944;-77
2023/05/18 10:54:51;;;;;;;;;;;12.30;99.90;;;;;;5025900;28;19916;-75
2023/05/18 10:57:21;;;;;;;;;;;12.30;99.90;;;;;;5008791;28;19921;-76
2023/05/18 10:59:46;;;;;;;;;;;12.30;99.90;;;;;;5007890;28;20007;-76
2023/05/18 11:02:15;;;;;;;;;;;12.30;99.90;;;;;;5004513;28;19992;-76
2023/05/18 11:04:44;;;;;;;;;;;12.50;99.90;;;;;;5025200;28;19995;-76
2023/05/18 11:07:11;;;;;;;;;;;12.50;99.90;;;;;;5030347;28;19911;-76
2023/05/18 11:09:41;;;;;;;;;;;12.60;99.90;;;;;;5020054;28;19916;-76
2023/05/18 11:12:15;;;;;;;;;;;12.60;99.90;;;;;;5027697;28;19991;-77
2023/05/18 11:14:51;;;;;;;;;;;12.60;99.90;;;;;;5000275;28;19909;-76
2023/05/18 11:17:21;;;;;;;;;;;12.70;99.90;;;;;;5011069;28;19931;-76
2023/05/18 11:20:07;;;;;;;;;;;12.80;99.90;;;;;;5022903;28;20000;-76
2023/05/18 11:22:41;;;;;;;;;;;12.80;99.90;;;;;;5025863;28;19960;-76
2023/05/18 11:25:10;;;;;;;;;;;12.80;99.90;;;;;;5022435;28;20266;-76
2023/05/18 11:27:37;;;;;;;;;;;12.80;99.90;;;;;;5021440;28;20524;-76
2023/05/18 11:30:02;;;;;;;;;;;12.80;99.90;;;;;;5006108;28;19924;-76
2023/05/18 11:32:32;;;;;;;;;;;12.80;99.90;;;;;;5023356;28;19916;-75
2023/05/18 11:34:58;;;;;;;;;;;12.90;99.90;;;;;;5024601;28;21009;-76
2023/05/18 11:37:37;;;;;;;;;;;13.00;99.90;;;;;;5021590;28;19905;-77
2023/05/18 11:40:04;;;;;;;;;;;13.10;99.90;;;;;;5022905;28;19955;-76
2023/05/18 11:42:31;;;;;;;;;;;13.00;99.90;;;;;;5024359;28;19996;-76
2023/05/18 11:45:11;;;;;;;;;;;13.10;99.90;;;;;;5007044;28;19916;-76
2023/05/18 11:47:39;;;;;;;;;;;13.20;99.90;;;;;;5024976;28;19909;-76
2023/05/18 11:50:09;;;;;;;;;;;13.30;99.90;;;;;;5008048;28;19931;-76
2023/05/18 11:52:54;;;;;;;;;;;13.30;99.90;;;;;;5023162;28;19917;-76
2023/05/18 11:55:19;;;;;;;;;;;13.30;99.90;;;;;;5026452;28;19909;-76
2023/05/18 11:57:51;;;;;;;;;;;13.30;99.90;;;;;;5022177;28;19932;-76
2023/05/18 12:00:19;;;;;;;;;;;13.40;99.90;;;;;;5021189;28;19996;-76
2023/05/18 12:02:46;;;;;;;;;;;13.50;99.90;;;;;;5024051;28;19952;-76
2023/05/18 12:05:12;;;;;;;;;;;13.50;99.90;;;;;;5025800;28;19910;-76
2023/05/18 12:07:38;;;;;;;;;;;13.40;99.90;;;;;;5023358;28;19912;-76
2023/05/18 12:10:06;;;;;;;;;;;13.50;99.90;;;;;;5026695;28;19909;-76
2023/05/18 12:12:33;;;;;;;;;;;13.60;99.90;;;;;;5009280;28;19911;-76
2023/05/18 12:15:00;;;;;;;;;;;13.60;99.90;;;;;;5027983;28;19970;-76
2023/05/18 12:17:42;;;;;;;;;;;13.70;99.90;;;;;;5022040;28;20554;-76
2023/05/18 12:20:16;;;;;;;;;;;13.70;99.90;;;;;;5021314;28;19909;-76
2023/05/18 12:22:42;;;;;;;;;;;13.50;99.90;;;;;;5022128;28;20428;-76
2023/05/18 12:25:08;;;;;;;;;;;13.50;99.90;;;;;;5027920;28;19999;-76
2023/05/18 12:27:42;;;;;;;;;;;13.60;99.90;;;;;;5023402;28;19996;-76
2023/05/18 12:30:16;;;;;;;;;;;13.60;99.90;;;;;;5004780;28;19905;-77
2023/05/18 12:32:46;;;;;;;;;;;13.60;99.90;;;;;;4996937;28;19932;-76
2023/05/18 12:35:12;;;;;;;;;;;13.60;99.90;;;;;;5028905;28;19913;-76
2023/05/18 12:37:47;;;;;;;;;;;13.70;99.90;;;;;;5002351;28;19909;-76
2023/05/18 12:40:16;;;;;;;;;;;13.70;99.90;;;;;;5021637;28;19959;-76
2023/05/18 12:43:01;;;;;;;;;;;13.80;99.90;;;;;;5007486;28;19909;-67
2023/05/18 12:45:30;;;;;;;;;;;13.90;99.90;;;;;;5020923;28;19909;-67
2023/05/18 12:48:06;;;;;;;;;;;13.80;99.90;;;;;;5023753;28;19909;-74
2023/05/18 12:50:32;;;;;;;;;;;13.90;99.90;;;;;;5023602;28;19916;-74
2023/05/18 12:53:00;;;;;;;;;;;13.90;99.90;;;;;;5000311;28;19909;-74
2023/05/18 12:55:28;;;;;;;;;;;13.90;99.90;;;;;;5020232;28;19928;-74
2023/05/18 12:58:07;;;;;;;;;;;13.90;99.90;;;;;;5021021;28;19913;-74
2023/05/18 13:00:33;;;;;;;;;;;13.90;99.90;;;;;;5004111;28;19913;-74
2023/05/18 13:03:06;;;;;;;;;;;13.90;99.90;;;;;;5022346;28;20011;-74
2023/05/18 13:05:32;;;;;;;;;;;13.80;99.90;;;;;;5021182;28;19909;-73
2023/05/18 13:07:58;;;;;;;;;;;13.70;99.90;;;;;;5020313;28;19920;-73
2023/05/18 13:10:28;;;;;;;;;;;13.70;99.90;;;;;;5020402;28;19905;-74
2023/05/18 13:13:00;;;;;;;;;;;13.80;99.90;;;;;;5005456;28;19912;-74
2023/05/18 13:15:25;;;;;;;;;;;13.90;99.90;;;;;;5003752;28;19933;-74
2023/05/18 13:17:55;;;;;;;;;;;13.90;99.90;;;;;;5021364;28;20393;-74
2023/05/18 13:20:21;;;;;;;;;;;13.90;99.90;;;;;;5025599;28;19932;-73
2023/05/18 13:22:50;;;;;;;;;;;13.90;99.90;;;;;;5023955;28;20367;-75
2023/05/18 13:25:16;;;;;;;;;;;13.90;99.90;;;;;;5025201;28;20379;-74
2023/05/18 13:27:44;;;;;;;;;;;14.00;99.90;;;;;;5019347;28;19911;-74
2023/05/18 13:30:10;;;;;;;;;;;14.00;99.90;;;;;;5004229;28;19905;-74
2023/05/18 13:32:36;;;;;;;;;;;14.00;99.90;;;;;;5020517;28;20373;-74
2023/05/18 13:35:04;;;;;;;;;;;14.00;99.90;;;;;;5022965;28;20003;-74
2023/05/18 13:37:30;;;;;;;;;;;13.90;99.90;;;;;;5018011;28;19913;-74
2023/05/18 13:39:57;;;;;;;;;;;13.90;99.90;;;;;;5023243;28;19947;-74
2023/05/18 13:42:23;;;;;;;;;;;13.80;99.90;;;;;;5002275;28;19905;-74
2023/05/18 13:44:50;;;;;;;;;;;13.90;99.90;;;;;;5006571;28;19905;-74
2023/05/18 13:47:15;;;;;;;;;;;13.90;99.90;;;;;;5011170;28;19913;-74
2023/05/18 13:49:44;;;;;;;;;;;13.90;99.90;;;;;;5025691;28;19904;-74
2023/05/18 13:52:11;;;;;;;;;;;13.90;99.90;;;;;;5025734;28;19909;-74
2023/05/18 13:54:38;;;;;;;;;;;13.90;99.90;;;;;;5025546;28;19912;-74
2023/05/18 13:57:04;;;;;;;;;;;13.80;99.90;;;;;;5027296;28;19952;-75
2023/05/18 13:59:33;;;;;;;;;;;13.90;99.90;;;;;;5006674;28;19952;-75
2023/05/18 14:02:00;;;;;;;;;;;14.00;99.90;;;;;;5022640;28;19912;-75
2023/05/18 14:04:28;;;;;;;;;;;14.10;99.90;;;;;;5024768;28;19916;-75
2023/05/18 14:06:57;;;;;;;;;;;14.00;99.90;;;;;;5020303;28;19930;-74
2023/05/18 14:09:23;;;;;;;;;;;14.00;99.90;;;;;;5026100;28;19944;-74
2023/05/18 14:11:49;;;;;;;;;;;14.10;99.90;;;;;;5003430;28;19920;-75
2023/05/18 14:14:14;;;;;;;;;;;14.10;99.90;;;;;;5002791;28;19917;-74
2023/05/18 14:16:40;;;;;;;;;;;14.10;99.90;;;;;;5024749;28;19975;-74
2023/05/18 14:19:05;;;;;;;;;;;14.00;99.90;;;;;;5026273;28;19931;-75
2023/05/18 14:21:32;;;;;;;;;;;14.00;99.90;;;;;;5026720;28;19967;-74
2023/05/18 14:24:02;;;;;;;;;;;13.90;99.90;;;;;;5026027;28;19909;-74
2023/05/18 14:26:28;;;;;;;;;;;14.00;99.90;;;;;;5028837;28;19996;-74
2023/05/18 14:28:54;;;;;;;;;;;14.10;99.90;;;;;;5023838;28;20007;-76
2023/05/18 14:31:19;;;;;;;;;;;14.10;99.90;;;;;;5013029;28;19960;-74